createdAt,value
2023-03-26T00:03:08.886Z,26.40
2023-03-26T00:07:08.821Z,26.40
2023-03-26T00:11:08.853Z,26.37
2023-03-26T00:15:08.963Z,26.33
2023-03-26T00:19:08.998Z,26.34
2023-03-26T00:23:08.989Z,26.33
2023-03-26T00:27:08.985Z,26.33
2023-03-26T00:31:09.035Z,26.33
2023-03-26T00:35:09.114Z,26.30
2023-03-26T00:39:09.264Z,26.32
2023-03-26T00:43:09.177Z,26.32
2023-03-26T00:47:09.202Z,26.30
2023-03-26T00:51:09.248Z,26.27
2023-03-26T00:55:09.218Z,26.27
2023-03-26T00:59:09.228Z,26.27
2023-03-26T01:03:09.290Z,26.27
2023-03-26T01:07:09.184Z,26.30
2023-03-26T01:11:09.173Z,26.24
2023-03-26T01:15:09.238Z,26.27
2023-03-26T01:19:09.268Z,26.23
2023-03-26T01:23:09.245Z,26.26
2023-03-26T01:27:09.228Z,26.22
2023-03-26T01:31:09.255Z,26.20
2023-03-26T01:35:09.273Z,26.22
2023-03-26T01:39:09.366Z,26.23
2023-03-26T01:43:09.430Z,26.22
2023-03-26T01:47:09.423Z,26.20
2023-03-26T01:51:09.493Z,26.19
2023-03-26T01:55:09.566Z,26.19
2023-03-26T01:59:09.550Z,26.19
2023-03-26T02:03:09.654Z,26.17
2023-03-26T02:07:09.533Z,26.19
2023-03-26T02:11:09.886Z,26.17
2023-03-26T02:15:09.547Z,26.15
2023-03-26T02:19:09.564Z,26.15
2023-03-26T02:23:09.562Z,26.16
2023-03-26T02:27:09.586Z,26.10
2023-03-26T02:31:09.680Z,26.10
2023-03-26T02:35:09.670Z,26.13
2023-03-26T16:55:22.878Z,26.61
2023-03-26T16:59:23.257Z,26.61
2023-03-26T17:03:23.350Z,26.63
2023-03-26T17:07:23.527Z,26.60
2023-03-26T17:11:23.441Z,26.60
2023-03-26T17:15:23.469Z,26.57
2023-03-26T22:47:24.613Z,25.96
